sensor_id;sensor_type;location;lat;lon;timestamp;P1;durP1;ratioP1;P2;durP2;ratioP2
17251;SDS011;8742;51.716;8.790;2023-06-10T00:00:47;6.33;;;4.50;;
17251;SDS011;8742;51.716;8.790;2023-06-10T00:03:15;5.93;;;4.10;;
17251;SDS011;8742;51.716;8.790;2023-06-10T00:05:42;5.73;;;4.13;;
17251;SDS011;8742;51.716;8.790;2023-06-10T00:08:09;8.30;;;4.10;;
17251;SDS011;8742;51.716;8.790;2023-06-10T00:10:37;9.53;;;4.57;;
17251;SDS011;8742;51.716;8.790;2023-06-10T00:13:04;7.60;;;4.63;;
17251;SDS011;8742;51.716;8.790;2023-06-10T00:15:33;10.00;;;4.10;;
17251;SDS011;8742;51.716;8.790;2023-06-10T00:18:00;6.27;;;4.03;;
17251;SDS011;8742;51.716;8.790;2023-06-10T00:20:28;9.00;;;4.40;;
17251;SDS011;8742;51.716;8.790;2023-06-10T00:22:56;7.37;;;4.17;;
17251;SDS011;8742;51.716;8.790;2023-06-10T00:25:24;7.50;;;4.17;;
17251;SDS011;8742;51.716;8.790;2023-06-10T00:27:51;5.77;;;3.93;;
17251;SDS011;8742;51.716;8.790;2023-06-10T00:30:18;10.47;;;4.80;;
17251;SDS011;8742;51.716;8.790;2023-06-10T00:32:46;8.80;;;4.43;;
17251;SDS011;8742;51.716;8.790;2023-06-10T00:35:13;8.13;;;4.20;;
17251;SDS011;8742;51.716;8.790;2023-06-10T00:37:41;6.87;;;4.00;;
17251;SDS011;8742;51.716;8.790;2023-06-10T00:40:08;8.83;;;4.23;;
17251;SDS011;8742;51.716;8.790;2023-06-10T00:42:36;7.97;;;4.30;;
17251;SDS011;8742;51.716;8.790;2023-06-10T00:45:03;4.93;;;3.87;;
17251;SDS011;8742;51.716;8.790;2023-06-10T00:47:30;5.00;;;4.13;;
17251;SDS011;8742;51.716;8.790;2023-06-10T00:49:58;9.57;;;4.53;;
17251;SDS011;8742;51.716;8.790;2023-06-10T00:52:25;7.70;;;4.70;;
17251;SDS011;8742;51.716;8.790;2023-06-10T00:54:56;6.57;;;4.33;;
17251;SDS011;8742;51.716;8.790;2023-06-10T00:57:24;7.10;;;4.10;;
17251;SDS011;8742;51.716;8.790;2023-06-10T00:59:51;12.30;;;4.73;;
17251;SDS011;8742;51.716;8.790;2023-06-10T01:02:18;6.60;;;4.43;;
17251;SDS011;8742;51.716;8.790;2023-06-10T01:04:45;6.93;;;4.00;;
17251;SDS011;8742;51.716;8.790;2023-06-10T01:07:14;7.90;;;4.10;;
17251;SDS011;8742;51.716;8.790;2023-06-10T01:09:50;6.47;;;4.17;;
17251;SDS011;8742;51.716;8.790;2023-06-10T01:12:26;5.97;;;3.97;;
17251;SDS011;8742;51.716;8.790;2023-06-10T01:14:59;6.33;;;4.30;;
17251;SDS011;8742;51.716;8.790;2023-06-10T01:17:26;6.90;;;4.13;;
17251;SDS011;8742;51.716;8.790;2023-06-10T01:19:55;11.03;;;3.93;;
17251;SDS011;8742;51.716;8.790;2023-06-10T01:22:25;7.73;;;4.10;;
17251;SDS011;8742;51.716;8.790;2023-06-10T01:24:53;9.67;;;4.20;;
17251;SDS011;8742;51.716;8.790;2023-06-10T01:27:23;5.43;;;3.70;;
17251;SDS011;8742;51.716;8.790;2023-06-10T01:29:58;6.93;;;4.20;;
17251;SDS011;8742;51.716;8.790;2023-06-10T01:32:32;8.67;;;3.87;;
17251;SDS011;8742;51.716;8.790;2023-06-10T01:35:03;8.43;;;3.97;;
17251;SDS011;8742;51.716;8.790;2023-06-10T01:37:35;6.17;;;3.50;;
17251;SDS011;8742;51.716;8.790;2023-06-10T01:40:05;7.47;;;3.87;;
17251;SDS011;8742;51.716;8.790;2023-06-10T01:42:33;9.57;;;3.93;;
17251;SDS011;8742;51.716;8.790;2023-06-10T01:45:00;9.80;;;3.90;;
17251;SDS011;8742;51.716;8.790;2023-06-10T01:47:27;8.57;;;4.07;;
17251;SDS011;8742;51.716;8.790;2023-06-10T01:49:54;10.67;;;4.10;;
17251;SDS011;8742;51.716;8.790;2023-06-10T01:52:21;6.83;;;3.80;;
17251;SDS011;8742;51.716;8.790;2023-06-10T01:54:49;5.50;;;3.80;;
17251;SDS011;8742;51.716;8.790;2023-06-10T01:57:16;6.00;;;3.50;;
17251;SDS011;8742;51.716;8.790;2023-06-10T01:59:43;8.13;;;4.17;;
17251;SDS011;8742;51.716;8.790;2023-06-10T02:02:11;8.27;;;4.13;;
17251;SDS011;8742;51.716;8.790;2023-06-10T02:04:38;8.20;;;3.97;;
17251;SDS011;8742;51.716;8.790;2023-06-10T02:07:05;7.20;;;4.17;;
17251;SDS011;8742;51.716;8.790;2023-06-10T02:09:32;10.97;;;4.13;;
17251;SDS011;8742;51.716;8.790;2023-06-10T02:12:01;10.93;;;4.17;;
17251;SDS011;8742;51.716;8.790;2023-06-10T02:14:29;14.63;;;4.63;;
17251;SDS011;8742;51.716;8.790;2023-06-10T02:16:55;8.33;;;4.40;;
17251;SDS011;8742;51.716;8.790;2023-06-10T02:19:22;6.17;;;3.60;;
17251;SDS011;8742;51.716;8.790;2023-06-10T02:21:51;6.37;;;3.63;;
17251;SDS011;8742;51.716;8.790;2023-06-10T02:24:18;6.47;;;3.93;;
17251;SDS011;8742;51.716;8.790;2023-06-10T02:26:45;6.07;;;3.60;;
17251;SDS011;8742;51.716;8.790;2023-06-10T02:29:14;5.27;;;3.57;;
17251;SDS011;8742;51.716;8.790;2023-06-10T02:31:41;11.27;;;3.87;;
17251;SDS011;8742;51.716;8.790;2023-06-10T02:34:08;6.60;;;4.00;;
17251;SDS011;8742;51.716;8.790;2023-06-10T02:36:35;5.97;;;4.40;;
17251;SDS011;8742;51.716;8.790;2023-06-10T02:39:02;5.87;;;3.70;;
17251;SDS011;8742;51.716;8.790;2023-06-10T02:41:29;7.83;;;4.10;;
17251;SDS011;8742;51.716;8.790;2023-06-10T02:43:56;6.63;;;3.60;;
17251;SDS011;8742;51.716;8.790;2023-06-10T02:46:24;7.03;;;3.87;;
17251;SDS011;8742;51.716;8.790;2023-06-10T02:48:51;4.20;;;3.47;;
17251;SDS011;8742;51.716;8.790;2023-06-10T02:51:18;7.03;;;3.93;;
17251;SDS011;8742;51.716;8.790;2023-06-10T02:53:45;7.37;;;3.90;;
17251;SDS011;8742;51.716;8.790;2023-06-10T02:56:13;9.53;;;3.93;;
17251;SDS011;8742;51.716;8.790;2023-06-10T02:58:42;11.03;;;4.10;;
17251;SDS011;8742;51.716;8.790;2023-06-10T03:01:09;6.90;;;3.80;;
17251;SDS011;8742;51.716;8.790;2023-06-10T03:03:37;12.47;;;4.23;;
17251;SDS011;8742;51.716;8.790;2023-06-10T03:06:07;8.07;;;3.70;;
17251;SDS011;8742;51.716;8.790;2023-06-10T03:08:35;7.60;;;4.23;;
17251;SDS011;8742;51.716;8.790;2023-06-10T03:11:02;6.77;;;3.83;;
17251;SDS011;8742;51.716;8.790;2023-06-10T03:13:28;7.37;;;3.80;;
17251;SDS011;8742;51.716;8.790;2023-06-10T03:15:55;9.33;;;4.37;;
17251;SDS011;8742;51.716;8.790;2023-06-10T03:18:26;8.97;;;4.17;;
17251;SDS011;8742;51.716;8.790;2023-06-10T03:20:55;7.20;;;3.93;;
17251;SDS011;8742;51.716;8.790;2023-06-10T03:23:22;8.47;;;3.93;;
17251;SDS011;8742;51.716;8.790;2023-06-10T03:25:49;7.00;;;4.37;;
17251;SDS011;8742;51.716;8.790;2023-06-10T03:28:16;6.30;;;3.77;;
17251;SDS011;8742;51.716;8.790;2023-06-10T03:30:43;6.97;;;4.03;;
17251;SDS011;8742;51.716;8.790;2023-06-10T03:33:10;6.67;;;3.87;;
17251;SDS011;8742;51.716;8.790;2023-06-10T03:35:36;7.67;;;4.40;;
17251;SDS011;8742;51.716;8.790;2023-06-10T03:38:05;9.33;;;4.17;;
17251;SDS011;8742;51.716;8.790;2023-06-10T03:40:31;9.97;;;4.40;;
17251;SDS011;8742;51.716;8.790;2023-06-10T03:42:58;6.93;;;4.27;;
17251;SDS011;8742;51.716;8.790;2023-06-10T03:45:26;6.17;;;3.90;;
17251;SDS011;8742;51.716;8.790;2023-06-10T03:47:54;8.33;;;4.23;;
17251;SDS011;8742;51.716;8.790;2023-06-10T03:50:22;8.17;;;4.00;;
17251;SDS011;8742;51.716;8.790;2023-06-10T03:52:49;6.37;;;3.73;;
17251;SDS011;8742;51.716;8.790;2023-06-10T03:55:18;7.57;;;3.73;;
17251;SDS011;8742;51.716;8.790;2023-06-10T03:57:46;9.03;;;4.40;;
17251;SDS011;8742;51.716;8.790;2023-06-10T04:00:14;8.27;;;4.20;;
17251;SDS011;8742;51.716;8.790;2023-06-10T04:02:42;10.57;;;4.50;;
17251;SDS011;8742;51.716;8.790;2023-06-10T04:05:13;5.03;;;3.70;;
17251;SDS011;8742;51.716;8.790;2023-06-10T04:07:41;9.77;;;4.50;;
17251;SDS011;8742;51.716;8.790;2023-06-10T04:10:09;9.93;;;4.40;;
17251;SDS011;8742;51.716;8.790;2023-06-10T04:12:38;5.50;;;3.97;;
17251;SDS011;8742;51.716;8.790;2023-06-10T04:15:05;6.70;;;3.73;;
17251;SDS011;8742;51.716;8.790;2023-06-10T04:17:32;6.47;;;4.00;;
17251;SDS011;8742;51.716;8.790;2023-06-10T04:19:59;9.13;;;4.07;;
17251;SDS011;8742;51.716;8.790;2023-06-10T04:22:27;7.37;;;3.87;;
17251;SDS011;8742;51.716;8.790;2023-06-10T04:24:54;5.20;;;3.43;;
17251;SDS011;8742;51.716;8.790;2023-06-10T04:27:21;7.40;;;3.67;;
17251;SDS011;8742;51.716;8.790;2023-06-10T04:29:49;7.67;;;3.83;;
17251;SDS011;8742;51.716;8.790;2023-06-10T04:32:16;7.87;;;3.63;;
17251;SDS011;8742;51.716;8.790;2023-06-10T04:34:43;7.43;;;3.93;;
17251;SDS011;8742;51.716;8.790;2023-06-10T04:37:09;6.73;;;3.83;;
17251;SDS011;8742;51.716;8.790;2023-06-10T04:39:36;7.07;;;3.90;;
17251;SDS011;8742;51.716;8.790;2023-06-10T04:42:03;7.63;;;3.60;;
17251;SDS011;8742;51.716;8.790;2023-06-10T04:44:31;5.67;;;3.80;;
17251;SDS011;8742;51.716;8.790;2023-06-10T04:46:59;8.47;;;3.73;;
17251;SDS011;8742;51.716;8.790;2023-06-10T04:49:26;5.27;;;3.47;;
17251;SDS011;8742;51.716;8.790;2023-06-10T04:51:53;11.37;;;3.80;;
17251;SDS011;8742;51.716;8.790;2023-06-10T04:54:20;7.10;;;3.43;;
17251;SDS011;8742;51.716;8.790;2023-06-10T04:56:47;7.77;;;3.70;;
17251;SDS011;8742;51.716;8.790;2023-06-10T04:59:14;12.83;;;3.87;;
17251;SDS011;8742;51.716;8.790;2023-06-10T05:01:41;5.97;;;4.17;;
17251;SDS011;8742;51.716;8.790;2023-06-10T05:04:09;7.17;;;3.73;;
17251;SDS011;8742;51.716;8.790;2023-06-10T05:06:36;6.03;;;3.77;;
17251;SDS011;8742;51.716;8.790;2023-06-10T05:09:03;13.20;;;4.00;;
17251;SDS011;8742;51.716;8.790;2023-06-10T05:11:30;9.97;;;3.30;;
17251;SDS011;8742;51.716;8.790;2023-06-10T05:13:57;6.73;;;3.33;;
17251;SDS011;8742;51.716;8.790;2023-06-10T05:16:24;6.90;;;3.70;;
17251;SDS011;8742;51.716;8.790;2023-06-10T05:18:51;8.50;;;3.97;;
17251;SDS011;8742;51.716;8.790;2023-06-10T05:21:19;7.73;;;3.37;;
17251;SDS011;8742;51.716;8.790;2023-06-10T05:23:46;6.40;;;3.50;;
17251;SDS011;8742;51.716;8.790;2023-06-10T05:26:19;6.27;;;3.50;;
17251;SDS011;8742;51.716;8.790;2023-06-10T05:28:50;5.30;;;3.43;;
17251;SDS011;8742;51.716;8.790;2023-06-10T05:31:17;4.77;;;3.77;;
17251;SDS011;8742;51.716;8.790;2023-06-10T05:33:44;6.23;;;3.10;;
17251;SDS011;8742;51.716;8.790;2023-06-10T05:36:11;7.70;;;3.47;;
17251;SDS011;8742;51.716;8.790;2023-06-10T05:38:40;5.67;;;3.43;;
17251;SDS011;8742;51.716;8.790;2023-06-10T05:41:23;5.67;;;3.67;;
17251;SDS011;8742;51.716;8.790;2023-06-10T05:43:50;11.37;;;4.33;;
17251;SDS011;8742;51.716;8.790;2023-06-10T05:46:17;5.57;;;3.73;;
17251;SDS011;8742;51.716;8.790;2023-06-10T05:48:45;7.07;;;3.87;;
17251;SDS011;8742;51.716;8.790;2023-06-10T05:51:12;7.77;;;3.37;;
17251;SDS011;8742;51.716;8.790;2023-06-10T05:53:41;3.30;;;3.00;;
17251;SDS011;8742;51.716;8.790;2023-06-10T05:56:14;8.50;;;3.57;;
17251;SDS011;8742;51.716;8.790;2023-06-10T05:58:41;5.77;;;3.70;;
17251;SDS011;8742;51.716;8.790;2023-06-10T06:01:08;5.00;;;3.30;;
17251;SDS011;8742;51.716;8.790;2023-06-10T06:03:35;6.37;;;3.57;;
17251;SDS011;8742;51.716;8.790;2023-06-10T06:06:05;9.27;;;3.67;;
17251;SDS011;8742;51.716;8.790;2023-06-10T06:08:33;7.17;;;3.47;;
17251;SDS011;8742;51.716;8.790;2023-06-10T06:11:01;8.33;;;4.20;;
17251;SDS011;8742;51.716;8.790;2023-06-10T06:13:28;5.57;;;3.47;;
17251;SDS011;8742;51.716;8.790;2023-06-10T06:18:40;9.97;;;3.60;;
17251;SDS011;8742;51.716;8.790;2023-06-10T06:21:10;4.57;;;3.20;;
17251;SDS011;8742;51.716;8.790;2023-06-10T06:23:37;6.80;;;3.80;;
17251;SDS011;8742;51.716;8.790;2023-06-10T06:26:06;8.63;;;3.87;;
17251;SDS011;8742;51.716;8.790;2023-06-10T06:28:32;6.17;;;3.50;;
17251;SDS011;8742;51.716;8.790;2023-06-10T06:30:59;5.47;;;3.90;;
17251;SDS011;8742;51.716;8.790;2023-06-10T06:33:26;6.80;;;3.60;;
17251;SDS011;8742;51.716;8.790;2023-06-10T06:35:53;3.93;;;3.40;;
17251;SDS011;8742;51.716;8.790;2023-06-10T06:38:20;6.33;;;3.70;;
17251;SDS011;8742;51.716;8.790;2023-06-10T06:40:47;4.93;;;3.80;;
17251;SDS011;8742;51.716;8.790;2023-06-10T06:43:15;7.27;;;3.63;;
17251;SDS011;8742;51.716;8.790;2023-06-10T06:45:43;5.47;;;3.70;;
17251;SDS011;8742;51.716;8.790;2023-06-10T06:48:10;6.77;;;3.50;;
17251;SDS011;8742;51.716;8.790;2023-06-10T06:50:41;6.13;;;3.70;;
17251;SDS011;8742;51.716;8.790;2023-06-10T06:53:09;4.97;;;3.97;;
17251;SDS011;8742;51.716;8.790;2023-06-10T06:55:36;5.20;;;3.13;;
17251;SDS011;8742;51.716;8.790;2023-06-10T06:58:03;8.67;;;3.70;;
17251;SDS011;8742;51.716;8.790;2023-06-10T07:00:31;5.07;;;3.40;;
17251;SDS011;8742;51.716;8.790;2023-06-10T07:02:58;7.47;;;4.27;;
17251;SDS011;8742;51.716;8.790;2023-06-10T07:05:31;7.67;;;3.80;;
17251;SDS011;8742;51.716;8.790;2023-06-10T07:08:00;5.83;;;4.00;;
17251;SDS011;8742;51.716;8.790;2023-06-10T07:10:30;5.87;;;3.67;;
17251;SDS011;8742;51.716;8.790;2023-06-10T07:12:56;5.30;;;3.50;;
17251;SDS011;8742;51.716;8.790;2023-06-10T07:15:23;8.85;;;3.55;;
17251;SDS011;8742;51.716;8.790;2023-06-10T07:18:00;7.00;;;4.18;;
17251;SDS011;8742;51.716;8.790;2023-06-10T07:20:30;6.43;;;3.40;;
17251;SDS011;8742;51.716;8.790;2023-06-10T07:22:57;6.70;;;3.75;;
17251;SDS011;8742;51.716;8.790;2023-06-10T07:25:24;8.38;;;4.13;;
17251;SDS011;8742;51.716;8.790;2023-06-10T07:27:51;8.13;;;3.60;;
17251;SDS011;8742;51.716;8.790;2023-06-10T07:30:38;5.10;;;3.70;;
17251;SDS011;8742;51.716;8.790;2023-06-10T07:33:07;10.90;;;3.92;;
17251;SDS011;8742;51.716;8.790;2023-06-10T07:35:36;8.25;;;3.58;;
17251;SDS011;8742;51.716;8.790;2023-06-10T07:38:02;5.10;;;3.60;;
17251;SDS011;8742;51.716;8.790;2023-06-10T07:40:29;11.23;;;3.72;;
17251;SDS011;8742;51.716;8.790;2023-06-10T07:42:59;6.57;;;3.70;;
17251;SDS011;8742;51.716;8.790;2023-06-10T07:45:29;6.90;;;3.83;;
17251;SDS011;8742;51.716;8.790;2023-06-10T07:47:56;5.43;;;3.42;;
17251;SDS011;8742;51.716;8.790;2023-06-10T07:50:24;7.82;;;3.70;;
17251;SDS011;8742;51.716;8.790;2023-06-10T07:52:53;7.28;;;3.70;;
17251;SDS011;8742;51.716;8.790;2023-06-10T07:55:20;7.10;;;3.92;;
17251;SDS011;8742;51.716;8.790;2023-06-10T08:00:38;10.05;;;3.97;;
17251;SDS011;8742;51.716;8.790;2023-06-10T08:03:05;8.45;;;4.13;;
17251;SDS011;8742;51.716;8.790;2023-06-10T08:05:34;7.65;;;3.60;;
17251;SDS011;8742;51.716;8.790;2023-06-10T08:08:01;5.03;;;3.58;;
17251;SDS011;8742;51.716;8.790;2023-06-10T08:10:28;7.78;;;3.83;;
17251;SDS011;8742;51.716;8.790;2023-06-10T08:12:55;4.63;;;3.63;;
17251;SDS011;8742;51.716;8.790;2023-06-10T08:15:22;16.10;;;4.18;;
17251;SDS011;8742;51.716;8.790;2023-06-10T08:17:49;6.82;;;3.75;;
17251;SDS011;8742;51.716;8.790;2023-06-10T08:20:16;8.02;;;3.70;;
17251;SDS011;8742;51.716;8.790;2023-06-10T08:22:45;4.95;;;3.63;;
17251;SDS011;8742;51.716;8.790;2023-06-10T08:25:11;7.45;;;3.60;;
17251;SDS011;8742;51.716;8.790;2023-06-10T08:27:38;7.07;;;3.45;;
17251;SDS011;8742;51.716;8.790;2023-06-10T08:30:05;7.65;;;4.03;;
17251;SDS011;8742;51.716;8.790;2023-06-10T08:32:35;8.50;;;3.65;;
17251;SDS011;8742;51.716;8.790;2023-06-10T08:35:02;6.28;;;3.72;;
17251;SDS011;8742;51.716;8.790;2023-06-10T08:37:29;5.50;;;3.90;;
17251;SDS011;8742;51.716;8.790;2023-06-10T08:39:57;6.63;;;3.95;;
17251;SDS011;8742;51.716;8.790;2023-06-10T08:42:25;5.28;;;3.83;;
17251;SDS011;8742;51.716;8.790;2023-06-10T08:44:55;4.97;;;3.83;;
17251;SDS011;8742;51.716;8.790;2023-06-10T08:47:24;8.23;;;3.95;;
17251;SDS011;8742;51.716;8.790;2023-06-10T08:49:52;4.97;;;3.72;;
17251;SDS011;8742;51.716;8.790;2023-06-10T08:52:21;4.72;;;3.63;;
17251;SDS011;8742;51.716;8.790;2023-06-10T08:54:52;7.00;;;3.83;;
17251;SDS011;8742;51.716;8.790;2023-06-10T08:57:23;5.63;;;3.72;;
17251;SDS011;8742;51.716;8.790;2023-06-10T08:59:52;6.30;;;4.00;;
17251;SDS011;8742;51.716;8.790;2023-06-10T09:02:20;9.35;;;3.65;;
17251;SDS011;8742;51.716;8.790;2023-06-10T09:04:47;5.00;;;4.10;;
17251;SDS011;8742;51.716;8.790;2023-06-10T09:07:16;5.57;;;4.18;;
17251;SDS011;8742;51.716;8.790;2023-06-10T09:09:44;7.35;;;3.85;;
17251;SDS011;8742;51.716;8.790;2023-06-10T09:12:14;5.20;;;3.78;;
17251;SDS011;8742;51.716;8.790;2023-06-10T09:14:43;5.18;;;3.92;;
17251;SDS011;8742;51.716;8.790;2023-06-10T09:17:09;7.55;;;4.00;;
17251;SDS011;8742;51.716;8.790;2023-06-10T09:19:37;6.18;;;4.05;;
17251;SDS011;8742;51.716;8.790;2023-06-10T09:22:06;6.25;;;3.90;;
17251;SDS011;8742;51.716;8.790;2023-06-10T09:24:33;5.38;;;3.83;;
17251;SDS011;8742;51.716;8.790;2023-06-10T09:27:03;4.57;;;3.83;;
17251;SDS011;8742;51.716;8.790;2023-06-10T09:29:31;7.10;;;3.58;;
17251;SDS011;8742;51.716;8.790;2023-06-10T09:31:59;7.32;;;3.83;;
17251;SDS011;8742;51.716;8.790;2023-06-10T09:34:27;5.28;;;4.03;;
17251;SDS011;8742;51.716;8.790;2023-06-10T09:36:55;7.13;;;4.22;;
17251;SDS011;8742;51.716;8.790;2023-06-10T09:39:22;8.80;;;4.00;;
17251;SDS011;8742;51.716;8.790;2023-06-10T09:41:48;6.20;;;4.00;;
17251;SDS011;8742;51.716;8.790;2023-06-10T09:44:16;5.63;;;3.88;;
17251;SDS011;8742;51.716;8.790;2023-06-10T09:46:45;9.55;;;4.47;;
17251;SDS011;8742;51.716;8.790;2023-06-10T09:49:14;7.00;;;4.22;;
17251;SDS011;8742;51.716;8.790;2023-06-10T09:51:48;7.60;;;3.97;;
17251;SDS011;8742;51.716;8.790;2023-06-10T09:54:16;6.90;;;4.05;;
17251;SDS011;8742;51.716;8.790;2023-06-10T09:56:44;5.85;;;4.50;;
17251;SDS011;8742;51.716;8.790;2023-06-10T09:59:13;6.63;;;4.38;;
17251;SDS011;8742;51.716;8.790;2023-06-10T10:01:41;8.43;;;4.32;;
17251;SDS011;8742;51.716;8.790;2023-06-10T10:04:08;8.48;;;4.07;;
17251;SDS011;8742;51.716;8.790;2023-06-10T10:06:36;8.77;;;4.63;;
17251;SDS011;8742;51.716;8.790;2023-06-10T10:09:03;9.63;;;4.55;;
17251;SDS011;8742;51.716;8.790;2023-06-10T10:11:30;5.43;;;3.92;;
17251;SDS011;8742;51.716;8.790;2023-06-10T10:13:59;6.10;;;4.22;;
17251;SDS011;8742;51.716;8.790;2023-06-10T10:16:30;9.05;;;4.40;;
17251;SDS011;8742;51.716;8.790;2023-06-10T10:19:04;5.18;;;4.15;;
17251;SDS011;8742;51.716;8.790;2023-06-10T10:21:40;12.82;;;4.50;;
17251;SDS011;8742;51.716;8.790;2023-06-10T10:24:12;7.00;;;4.25;;
17251;SDS011;8742;51.716;8.790;2023-06-10T10:26:42;6.15;;;4.18;;
17251;SDS011;8742;51.716;8.790;2023-06-10T10:29:14;6.53;;;4.80;;
17251;SDS011;8742;51.716;8.790;2023-06-10T10:31:49;7.10;;;4.10;;
17251;SDS011;8742;51.716;8.790;2023-06-10T10:34:19;5.38;;;4.20;;
17251;SDS011;8742;51.716;8.790;2023-06-10T10:36:52;6.30;;;4.60;;
17251;SDS011;8742;51.716;8.790;2023-06-10T10:39:19;5.63;;;4.25;;
17251;SDS011;8742;51.716;8.790;2023-06-10T10:41:46;4.53;;;4.10;;
17251;SDS011;8742;51.716;8.790;2023-06-10T10:44:13;8.95;;;4.40;;
17251;SDS011;8742;51.716;8.790;2023-06-10T10:46:41;5.18;;;4.38;;
17251;SDS011;8742;51.716;8.790;2023-06-10T10:49:10;5.72;;;4.60;;
17251;SDS011;8742;51.716;8.790;2023-06-10T10:51:47;6.85;;;4.70;;
17251;SDS011;8742;51.716;8.790;2023-06-10T10:54:27;5.60;;;4.32;;
17251;SDS011;8742;51.716;8.790;2023-06-10T10:57:12;7.38;;;4.15;;
17251;SDS011;8742;51.716;8.790;2023-06-10T10:59:43;8.20;;;4.30;;
17251;SDS011;8742;51.716;8.790;2023-06-10T11:02:31;7.82;;;4.72;;
17251;SDS011;8742;51.716;8.790;2023-06-10T11:05:00;9.40;;;4.78;;
17251;SDS011;8742;51.716;8.790;2023-06-10T11:07:30;7.57;;;4.13;;
17251;SDS011;8742;51.716;8.790;2023-06-10T11:09:58;6.32;;;4.30;;
17251;SDS011;8742;51.716;8.790;2023-06-10T11:12:26;6.93;;;4.47;;
17251;SDS011;8742;51.716;8.790;2023-06-10T11:15:14;7.85;;;4.28;;
17251;SDS011;8742;51.716;8.790;2023-06-10T11:20:43;9.00;;;4.43;;
17251;SDS011;8742;51.716;8.790;2023-06-10T11:23:40;10.48;;;4.68;;
17251;SDS011;8742;51.716;8.790;2023-06-10T11:26:12;6.60;;;4.55;;
17251;SDS011;8742;51.716;8.790;2023-06-10T11:28:40;6.03;;;4.60;;
17251;SDS011;8742;51.716;8.790;2023-06-10T11:31:09;8.52;;;4.38;;
17251;SDS011;8742;51.716;8.790;2023-06-10T11:33:44;8.30;;;4.70;;
17251;SDS011;8742;51.716;8.790;2023-06-10T11:36:12;12.18;;;4.72;;
17251;SDS011;8742;51.716;8.790;2023-06-10T11:38:41;6.13;;;4.20;;
17251;SDS011;8742;51.716;8.790;2023-06-10T11:41:09;7.00;;;4.00;;
17251;SDS011;8742;51.716;8.790;2023-06-10T11:43:37;8.95;;;4.60;;
17251;SDS011;8742;51.716;8.790;2023-06-10T11:46:08;7.78;;;4.50;;
17251;SDS011;8742;51.716;8.790;2023-06-10T11:48:35;7.45;;;4.68;;
17251;SDS011;8742;51.716;8.790;2023-06-10T11:51:05;9.27;;;5.18;;
17251;SDS011;8742;51.716;8.790;2023-06-10T11:53:32;11.55;;;5.13;;
17251;SDS011;8742;51.716;8.790;2023-06-10T11:56:00;6.78;;;4.45;;
17251;SDS011;8742;51.716;8.790;2023-06-10T11:58:27;6.38;;;4.13;;
17251;SDS011;8742;51.716;8.790;2023-06-10T12:00:54;6.55;;;4.50;;
17251;SDS011;8742;51.716;8.790;2023-06-10T12:03:23;9.68;;;5.43;;
17251;SDS011;8742;51.716;8.790;2023-06-10T12:05:56;6.43;;;4.68;;
17251;SDS011;8742;51.716;8.790;2023-06-10T12:08:25;5.45;;;4.45;;
17251;SDS011;8742;51.716;8.790;2023-06-10T12:10:52;6.80;;;4.43;;
17251;SDS011;8742;51.716;8.790;2023-06-10T12:13:21;7.35;;;4.60;;
17251;SDS011;8742;51.716;8.790;2023-06-10T12:15:49;6.60;;;4.20;;
17251;SDS011;8742;51.716;8.790;2023-06-10T12:18:16;12.65;;;4.55;;
17251;SDS011;8742;51.716;8.790;2023-06-10T12:20:43;5.45;;;4.32;;
17251;SDS011;8742;51.716;8.790;2023-06-10T12:23:11;8.70;;;4.07;;
17251;SDS011;8742;51.716;8.790;2023-06-10T12:25:38;8.50;;;4.35;;
17251;SDS011;8742;51.716;8.790;2023-06-10T12:28:09;5.60;;;4.35;;
17251;SDS011;8742;51.716;8.790;2023-06-10T12:30:37;7.70;;;4.55;;
17251;SDS011;8742;51.716;8.790;2023-06-10T12:33:04;7.60;;;4.47;;
17251;SDS011;8742;51.716;8.790;2023-06-10T12:35:46;6.68;;;4.35;;
17251;SDS011;8742;51.716;8.790;2023-06-10T12:38:14;7.22;;;4.20;;
17251;SDS011;8742;51.716;8.790;2023-06-10T12:40:47;7.78;;;4.35;;
17251;SDS011;8742;51.716;8.790;2023-06-10T12:43:18;6.10;;;4.47;;
17251;SDS011;8742;51.716;8.790;2023-06-10T12:45:47;6.53;;;4.30;;
17251;SDS011;8742;51.716;8.790;2023-06-10T12:48:17;6.97;;;4.70;;
17251;SDS011;8742;51.716;8.790;2023-06-10T12:50:46;5.88;;;5.03;;
17251;SDS011;8742;51.716;8.790;2023-06-10T12:53:18;10.73;;;3.72;;
17251;SDS011;8742;51.716;8.790;2023-06-10T12:55:46;10.18;;;4.18;;
17251;SDS011;8742;51.716;8.790;2023-06-10T12:58:13;8.95;;;4.38;;
17251;SDS011;8742;51.716;8.790;2023-06-10T13:00:40;4.50;;;4.05;;
17251;SDS011;8742;51.716;8.790;2023-06-10T13:03:09;12.05;;;4.85;;
17251;SDS011;8742;51.716;8.790;2023-06-10T13:05:36;5.05;;;4.53;;
17251;SDS011;8742;51.716;8.790;2023-06-10T13:08:04;6.78;;;4.70;;
17251;SDS011;8742;51.716;8.790;2023-06-10T13:10:31;6.80;;;4.80;;
17251;SDS011;8742;51.716;8.790;2023-06-10T13:12:58;12.63;;;5.28;;
17251;SDS011;8742;51.716;8.790;2023-06-10T13:15:26;6.78;;;4.50;;
17251;SDS011;8742;51.716;8.790;2023-06-10T13:17:52;5.78;;;4.50;;
17251;SDS011;8742;51.716;8.790;2023-06-10T13:20:21;11.63;;;5.22;;
17251;SDS011;8742;51.716;8.790;2023-06-10T13:22:47;4.90;;;4.47;;
17251;SDS011;8742;51.716;8.790;2023-06-10T13:25:14;7.55;;;4.97;;
17251;SDS011;8742;51.716;8.790;2023-06-10T13:27:41;6.85;;;4.97;;
17251;SDS011;8742;51.716;8.790;2023-06-10T13:30:08;7.45;;;4.65;;
17251;SDS011;8742;51.716;8.790;2023-06-10T13:32:36;7.60;;;5.07;;
17251;SDS011;8742;51.716;8.790;2023-06-10T13:35:03;11.50;;;5.38;;
17251;SDS011;8742;51.716;8.790;2023-06-10T13:37:33;5.95;;;4.97;;
17251;SDS011;8742;51.716;8.790;2023-06-10T13:40:00;8.90;;;4.88;;
17251;SDS011;8742;51.716;8.790;2023-06-10T13:42:28;6.93;;;5.13;;
17251;SDS011;8742;51.716;8.790;2023-06-10T13:44:55;11.50;;;4.75;;
17251;SDS011;8742;51.716;8.790;2023-06-10T13:47:22;5.57;;;4.88;;
17251;SDS011;8742;51.716;8.790;2023-06-10T13:49:49;5.72;;;5.10;;
17251;SDS011;8742;51.716;8.790;2023-06-10T13:52:16;8.80;;;4.90;;
17251;SDS011;8742;51.716;8.790;2023-06-10T13:54:44;5.57;;;4.97;;
17251;SDS011;8742;51.716;8.790;2023-06-10T13:57:11;11.95;;;5.18;;
17251;SDS011;8742;51.716;8.790;2023-06-10T13:59:38;8.65;;;4.88;;
17251;SDS011;8742;51.716;8.790;2023-06-10T14:02:05;13.52;;;5.32;;
17251;SDS011;8742;51.716;8.790;2023-06-10T14:04:32;8.95;;;4.95;;
17251;SDS011;8742;51.716;8.790;2023-06-10T14:06:59;7.97;;;5.38;;
17251;SDS011;8742;51.716;8.790;2023-06-10T14:09:25;8.18;;;4.90;;
17251;SDS011;8742;51.716;8.790;2023-06-10T14:11:54;17.83;;;5.22;;
17251;SDS011;8742;51.716;8.790;2023-06-10T14:14:21;7.78;;;5.28;;
17251;SDS011;8742;51.716;8.790;2023-06-10T14:16:48;5.60;;;4.68;;
17251;SDS011;8742;51.716;8.790;2023-06-10T14:19:15;5.68;;;4.93;;
17251;SDS011;8742;51.716;8.790;2023-06-10T14:21:41;6.75;;;4.82;;
17251;SDS011;8742;51.716;8.790;2023-06-10T14:24:08;5.65;;;4.53;;
17251;SDS011;8742;51.716;8.790;2023-06-10T14:26:35;5.72;;;5.03;;
17251;SDS011;8742;51.716;8.790;2023-06-10T14:29:03;11.45;;;5.57;;
17251;SDS011;8742;51.716;8.790;2023-06-10T14:31:32;5.88;;;5.18;;
17251;SDS011;8742;51.716;8.790;2023-06-10T14:33:58;12.20;;;5.10;;
17251;SDS011;8742;51.716;8.790;2023-06-10T14:36:25;8.20;;;5.05;;
17251;SDS011;8742;51.716;8.790;2023-06-10T14:38:52;5.95;;;5.03;;
17251;SDS011;8742;51.716;8.790;2023-06-10T14:41:19;6.35;;;5.20;;
17251;SDS011;8742;51.716;8.790;2023-06-10T14:43:47;8.07;;;5.32;;
17251;SDS011;8742;51.716;8.790;2023-06-10T14:46:15;6.32;;;5.32;;
17251;SDS011;8742;51.716;8.790;2023-06-10T14:48:42;7.72;;;5.43;;
17251;SDS011;8742;51.716;8.790;2023-06-10T14:51:09;8.80;;;5.60;;
17251;SDS011;8742;51.716;8.790;2023-06-10T14:53:36;23.45;;;5.97;;
17251;SDS011;8742;51.716;8.790;2023-06-10T14:56:03;6.57;;;5.20;;
17251;SDS011;8742;51.716;8.790;2023-06-10T14:58:30;9.52;;;5.47;;
17251;SDS011;8742;51.716;8.790;2023-06-10T15:00:57;9.45;;;5.10;;
17251;SDS011;8742;51.716;8.790;2023-06-10T15:03:25;6.95;;;5.13;;
17251;SDS011;8742;51.716;8.790;2023-06-10T15:05:52;17.30;;;5.80;;
17251;SDS011;8742;51.716;8.790;2023-06-10T15:08:18;10.20;;;5.60;;
17251;SDS011;8742;51.716;8.790;2023-06-10T15:10:45;5.85;;;5.18;;
17251;SDS011;8742;51.716;8.790;2023-06-10T15:13:13;9.48;;;5.38;;
17251;SDS011;8742;51.716;8.790;2023-06-10T15:15:40;13.40;;;5.90;;